Terminal Aerodrome Forecast
Issued by NWS Houston/Galveston TX

Home | Current Version | Previous Version | Text Only | Print | Product List | Glossary On
Versions: 1 2 3 4 5 6 7 8 9 10 11 12 13 14 15 16 17 18 19 20 21 22 23 24 25 26 27 28 29 30 31 32
000
FTUS44 KHGX 241120
TAFHOU
TAF
KHOU 241120Z 2412/2512 17008KT P6SM BKN020
      TEMPO 2412/2415 BKN015
     FM241700 18012KT P6SM FEW040 SCT250
     FM250200 18005KT P6SM BKN040
     FM250900 32003KT P6SM SCT015 SCT250=

USA.gov is the U.S. government's official web portal to all federal, state and local government web resources and services.